Time;durP1;ratioP1;P1;durP2;ratioP2;P2;SDS_P1;SDS_P2;PMS_P1;PMS_P2;Temp;Humidity;BMP_temperature;BMP_pressure;BME280_temperature;BME280_humidity;BME280_pressure;Samples;Min_cycle;Max_cycle;Signal;HPM_P1;HPM_P2
2023/07/13 00:01:16;;;;;;;7.13;3.10;;;15.90;99.90;;;;;;6096581;23;20032;-72
2023/07/13 00:03:42;;;;;;;10.05;3.65;;;15.90;99.90;;;;;;6096348;23;20234;-71
2023/07/13 00:06:08;;;;;;;8.35;3.80;;;15.90;99.90;;;;;;6070226;23;20074;-71
2023/07/13 00:08:34;;;;;;;6.90;3.40;;;15.80;99.90;;;;;;6097171;23;20022;-71
2023/07/13 00:11:02;;;;;;;7.97;3.45;;;15.90;99.90;;;;;;6096468;23;20026;-70
2023/07/13 00:13:29;;;;;;;8.82;3.90;;;15.80;99.90;;;;;;6097078;23;20030;-69
2023/07/13 00:15:56;;;;;;;8.02;3.70;;;15.80;99.90;;;;;;6095620;23;20022;-71
2023/07/13 00:18:22;;;;;;;9.27;3.40;;;15.80;99.90;;;;;;6094346;23;20053;-70
2023/07/13 00:20:48;;;;;;;7.68;3.50;;;15.80;99.90;;;;;;6047416;23;20018;-70
2023/07/13 00:23:15;;;;;;;8.77;3.10;;;15.80;99.90;;;;;;6093983;23;20029;-70
2023/07/13 00:25:40;;;;;;;5.78;3.20;;;15.80;99.90;;;;;;6096046;23;20026;-70
2023/07/13 00:28:06;;;;;;;6.72;2.92;;;15.80;99.90;;;;;;6094837;23;20029;-70
2023/07/13 00:30:32;;;;;;;7.43;3.20;;;15.80;99.90;;;;;;6095851;23;20028;-70
2023/07/13 00:32:57;;;;;;;8.25;3.10;;;15.80;99.90;;;;;;6097169;23;20018;-69
2023/07/13 00:35:23;;;;;;;10.80;2.97;;;15.80;99.90;;;;;;6094547;23;20050;-70
2023/07/13 00:37:49;;;;;;;10.57;3.42;;;15.80;99.90;;;;;;6048060;23;20096;-70
2023/07/13 00:40:16;;;;;;;8.75;2.88;;;15.80;99.90;;;;;;6070394;23;20026;-70
2023/07/13 00:42:42;;;;;;;7.07;3.30;;;15.80;99.90;;;;;;6071806;23;20022;-70
2023/07/13 00:45:28;;;;;;;6.40;2.90;;;15.80;99.90;;;;;;6069922;23;20029;-70
2023/07/13 00:47:57;;;;;;;8.18;3.92;;;15.80;99.90;;;;;;6094489;23;20026;-70
2023/07/13 00:50:23;;;;;;;9.85;3.58;;;15.80;99.90;;;;;;6096456;23;20042;-70
2023/07/13 00:52:53;;;;;;;9.20;3.30;;;15.80;99.90;;;;;;6093951;23;20058;-70
2023/07/13 00:55:21;;;;;;;9.00;3.25;;;15.80;99.90;;;;;;6095796;23;20352;-69
2023/07/13 00:57:47;;;;;;;10.80;3.50;;;15.90;99.90;;;;;;6069873;23;20046;-70
2023/07/13 01:00:13;;;;;;;5.28;2.90;;;15.90;99.90;;;;;;6047564;23;20592;-70
2023/07/13 01:02:44;;;;;;;8.23;3.28;;;15.90;99.90;;;;;;6070170;23;20149;-70
2023/07/13 01:05:15;;;;;;;9.20;3.40;;;15.80;99.90;;;;;;6096521;23;20198;-70
2023/07/13 01:07:43;;;;;;;9.10;3.65;;;15.90;99.90;;;;;;6071217;23;20049;-71
2023/07/13 01:10:11;;;;;;;7.28;3.00;;;15.80;99.90;;;;;;6095677;23;20429;-71
2023/07/13 01:12:36;;;;;;;6.43;3.20;;;15.80;99.90;;;;;;6096101;23;20046;-71
2023/07/13 01:15:04;;;;;;;7.30;3.25;;;15.80;99.90;;;;;;6093694;23;20070;-72
2023/07/13 01:17:32;;;;;;;8.07;3.45;;;15.80;99.90;;;;;;6095462;23;20074;-70
2023/07/13 01:19:59;;;;;;;8.05;3.38;;;15.80;99.90;;;;;;6094217;23;20396;-69
2023/07/13 01:22:26;;;;;;;10.75;3.30;;;15.80;99.90;;;;;;6070338;23;20032;-70
2023/07/13 01:24:54;;;;;;;8.35;3.50;;;15.80;99.90;;;;;;6095169;23;20023;-70
2023/07/13 01:27:25;;;;;;;8.98;3.40;;;15.80;99.90;;;;;;6094017;23;20033;-70
2023/07/13 01:29:53;;;;;;;9.45;4.05;;;15.80;99.90;;;;;;6095534;23;20029;-70
2023/07/13 01:32:24;;;;;;;8.95;3.38;;;15.80;99.90;;;;;;6069803;23;21085;-70
2023/07/13 01:34:53;;;;;;;5.75;3.40;;;15.80;99.90;;;;;;6094724;23;20078;-70
2023/07/13 01:37:20;;;;;;;8.65;3.28;;;15.80;99.90;;;;;;6094581;23;20090;-70
2023/07/13 01:39:46;;;;;;;9.55;3.65;;;15.80;99.90;;;;;;6094092;23;20018;-70
2023/07/13 01:42:12;;;;;;;9.15;3.58;;;15.90;99.90;;;;;;6094968;23;20074;-71
2023/07/13 01:44:38;;;;;;;7.13;3.47;;;15.80;99.90;;;;;;6069348;23;20037;-70
2023/07/13 01:47:04;;;;;;;15.25;3.80;;;15.80;99.90;;;;;;6047957;23;20356;-70
2023/07/13 01:49:30;;;;;;;8.75;3.22;;;15.90;99.90;;;;;;6069677;23;20022;-70
2023/07/13 01:51:56;;;;;;;11.38;4.38;;;15.90;99.90;;;;;;6094722;23;20066;-69
2023/07/13 01:54:21;;;;;;;12.32;3.78;;;15.90;99.90;;;;;;6094640;23;20831;-70
2023/07/13 01:56:47;;;;;;;8.65;3.40;;;15.80;99.90;;;;;;6046273;23;20053;-71
2023/07/13 01:59:13;;;;;;;9.18;3.22;;;15.90;99.90;;;;;;6095170;23;20053;-70
2023/07/13 02:01:38;;;;;;;8.13;3.38;;;15.90;99.90;;;;;;6069755;23;20030;-70
2023/07/13 02:04:04;;;;;;;8.68;3.65;;;15.90;99.90;;;;;;6071560;23;20030;-69
2023/07/13 02:06:30;;;;;;;7.03;3.17;;;15.90;99.90;;;;;;6093765;23;20022;-70
2023/07/13 02:08:55;;;;;;;9.60;3.80;;;15.90;99.90;;;;;;6047291;23;20038;-70
2023/07/13 02:11:21;;;;;;;10.93;3.88;;;15.90;99.90;;;;;;6070684;23;20146;-70
2023/07/13 02:13:47;;;;;;;11.10;3.83;;;15.90;99.90;;;;;;6048051;23;20019;-69
2023/07/13 02:16:13;;;;;;;11.15;3.88;;;15.90;99.90;;;;;;6072893;23;20083;-70
2023/07/13 02:18:38;;;;;;;8.35;3.30;;;15.90;99.90;;;;;;6095644;23;20018;-70
2023/07/13 02:21:04;;;;;;;7.88;3.70;;;15.90;99.90;;;;;;6072563;23;20579;-69
2023/07/13 02:23:30;;;;;;;10.27;3.85;;;15.90;99.90;;;;;;6095735;23;20030;-70
2023/07/13 02:26:02;;;;;;;9.57;3.72;;;15.90;99.90;;;;;;6073122;23;20033;-70
2023/07/13 02:28:28;;;;;;;10.82;3.80;;;15.90;99.90;;;;;;6072410;23;20535;-70
2023/07/13 02:30:54;;;;;;;8.52;3.60;;;15.90;99.90;;;;;;6095785;23;20019;-70
2023/07/13 02:33:20;;;;;;;12.18;4.00;;;15.90;99.90;;;;;;6072734;23;20026;-69
2023/07/13 02:35:45;;;;;;;7.57;3.65;;;15.90;99.90;;;;;;6071437;23;20023;-70
2023/07/13 02:38:11;;;;;;;8.27;4.00;;;15.90;99.90;;;;;;6048964;23;20093;-70
2023/07/13 02:40:38;;;;;;;13.77;4.00;;;15.90;99.90;;;;;;6097018;23;20022;-70
2023/07/13 02:43:04;;;;;;;9.95;3.83;;;15.90;99.90;;;;;;6096858;23;20069;-69
2023/07/13 02:45:29;;;;;;;11.05;3.70;;;15.80;99.90;;;;;;6071868;23;20097;-70
2023/07/13 02:47:55;;;;;;;10.13;3.75;;;15.80;99.90;;;;;;6072203;23;20022;-69
2023/07/13 02:50:21;;;;;;;9.88;3.80;;;15.80;99.90;;;;;;6097828;23;20445;-70
2023/07/13 02:52:47;;;;;;;10.10;4.20;;;15.70;99.90;;;;;;6071013;23;20122;-69
2023/07/13 02:55:12;;;;;;;12.18;3.95;;;15.70;99.90;;;;;;6099189;23;20206;-70
2023/07/13 02:57:38;;;;;;;7.10;3.78;;;15.70;99.90;;;;;;6095539;23;20057;-69
2023/07/13 03:00:07;;;;;;;9.40;3.55;;;15.70;99.90;;;;;;6072575;23;20026;-70
2023/07/13 03:02:33;;;;;;;11.02;4.00;;;15.70;99.90;;;;;;6095842;23;20093;-70
2023/07/13 03:04:59;;;;;;;12.23;4.25;;;15.70;99.90;;;;;;6095833;23;20026;-69
2023/07/13 03:07:28;;;;;;;10.93;4.07;;;15.70;99.90;;;;;;6096322;23;20068;-69
2023/07/13 03:09:57;;;;;;;11.32;3.97;;;15.60;99.90;;;;;;6095165;23;20131;-70
2023/07/13 03:12:24;;;;;;;16.13;4.55;;;15.70;99.90;;;;;;6096933;23;20026;-70
2023/07/13 03:14:50;;;;;;;10.02;3.60;;;15.60;99.90;;;;;;6096636;23;20078;-69
2023/07/13 03:17:16;;;;;;;7.00;3.47;;;15.60;99.90;;;;;;6048991;23;20234;-70
2023/07/13 03:19:42;;;;;;;8.25;3.40;;;15.60;99.90;;;;;;6095226;23;20077;-70
2023/07/13 03:22:07;;;;;;;8.93;3.53;;;15.60;99.90;;;;;;6071455;23;20028;-70
2023/07/13 03:24:34;;;;;;;13.43;4.30;;;15.60;99.90;;;;;;6072237;23;20074;-71
2023/07/13 03:27:04;;;;;;;10.35;3.78;;;15.60;99.90;;;;;;6096498;23;20023;-71
2023/07/13 03:29:30;;;;;;;10.98;3.92;;;15.60;99.90;;;;;;6072591;23;20129;-71
2023/07/13 03:31:55;;;;;;;6.57;3.60;;;15.60;99.90;;;;;;6070506;23;20463;-71
2023/07/13 03:34:21;;;;;;;13.73;4.05;;;15.60;99.90;;;;;;6096044;23;20026;-70
2023/07/13 03:36:47;;;;;;;9.57;3.60;;;15.60;99.90;;;;;;6095359;23;20461;-70
2023/07/13 03:39:12;;;;;;;11.98;4.05;;;15.60;99.90;;;;;;6094739;23;20066;-70
2023/07/13 03:41:38;;;;;;;11.85;4.50;;;15.60;99.90;;;;;;6095809;23;20415;-70
2023/07/13 03:44:04;;;;;;;11.00;3.63;;;15.60;99.90;;;;;;6094967;23;20018;-70
2023/07/13 03:46:30;;;;;;;10.82;4.18;;;15.60;99.90;;;;;;6048566;23;20487;-70
2023/07/13 03:48:56;;;;;;;13.65;4.53;;;15.60;99.90;;;;;;6094785;23;20410;-71
2023/07/13 03:51:22;;;;;;;11.45;3.75;;;15.60;99.90;;;;;;6072066;23;20029;-70
2023/07/13 03:53:48;;;;;;;14.30;4.32;;;15.60;99.90;;;;;;6071641;23;20025;-70
2023/07/13 03:56:15;;;;;;;8.45;4.13;;;15.60;99.90;;;;;;6095856;23;20363;-73
2023/07/13 03:58:43;;;;;;;10.82;4.07;;;15.50;99.90;;;;;;6071973;23;20046;-70
2023/07/13 04:01:10;;;;;;;14.30;4.50;;;15.50;99.90;;;;;;6094693;23;20022;-71
2023/07/13 04:03:36;;;;;;;11.52;4.50;;;15.50;99.90;;;;;;6072486;23;20377;-70
2023/07/13 04:06:05;;;;;;;17.05;4.85;;;15.60;99.90;;;;;;6070532;23;20065;-70
2023/07/13 04:08:33;;;;;;;10.02;3.95;;;15.60;99.90;;;;;;6095590;23;20688;-71
2023/07/13 04:10:59;;;;;;;11.82;4.10;;;15.60;99.90;;;;;;6094919;23;20022;-70
2023/07/13 04:13:25;;;;;;;16.65;4.82;;;15.60;99.90;;;;;;6095139;23;20018;-70
2023/07/13 04:15:51;;;;;;;9.43;4.15;;;15.50;99.90;;;;;;6097750;23;20443;-70
2023/07/13 04:18:19;;;;;;;17.10;4.60;;;15.50;99.90;;;;;;6070247;23;20070;-70
2023/07/13 04:20:49;;;;;;;10.13;4.50;;;15.50;99.90;;;;;;6095395;23;20093;-70
2023/07/13 04:23:15;;;;;;;11.80;4.32;;;15.50;99.90;;;;;;6094357;23;20038;-71
2023/07/13 04:25:52;;;;;;;14.77;5.03;;;15.50;99.90;;;;;;6095941;23;20022;-70
2023/07/13 04:28:22;;;;;;;14.30;4.88;;;15.50;99.90;;;;;;6096976;23;20023;-70
2023/07/13 04:30:48;;;;;;;14.27;5.25;;;15.50;99.90;;;;;;6096213;23;20023;-70
2023/07/13 04:33:15;;;;;;;12.48;4.97;;;15.50;99.90;;;;;;6071413;23;20026;-70
2023/07/13 04:35:41;;;;;;;15.30;4.85;;;15.50;99.90;;;;;;6093556;23;20018;-71
2023/07/13 04:38:07;;;;;;;10.80;4.88;;;15.50;99.90;;;;;;6048360;23;20018;-70
2023/07/13 04:40:32;;;;;;;12.10;4.78;;;15.50;99.90;;;;;;6094857;23;20022;-71
2023/07/13 04:42:58;;;;;;;14.90;4.75;;;15.50;99.90;;;;;;6097796;23;20033;-70
2023/07/13 04:45:24;;;;;;;16.20;4.82;;;15.50;99.90;;;;;;6048540;23;20050;-70
2023/07/13 04:47:50;;;;;;;10.57;4.80;;;15.50;99.90;;;;;;6093319;23;20348;-70
2023/07/13 04:50:20;;;;;;;11.00;4.93;;;15.50;99.90;;;;;;6093230;23;20518;-70
2023/07/13 04:52:46;;;;;;;13.35;5.20;;;15.50;99.90;;;;;;6070283;23;20018;-70
2023/07/13 04:55:12;;;;;;;14.68;4.90;;;15.50;99.90;;;;;;6094679;23;20022;-70
2023/07/13 04:57:38;;;;;;;13.60;5.57;;;15.50;99.90;;;;;;6093761;23;20025;-70
2023/07/13 05:00:05;;;;;;;14.20;5.68;;;15.60;99.90;;;;;;6093125;23;20026;-70
2023/07/13 05:02:31;;;;;;;11.25;4.95;;;15.60;99.90;;;;;;6093833;23;20023;-70
2023/07/13 05:04:57;;;;;;;15.35;5.20;;;15.70;99.90;;;;;;6094989;23;20074;-70
2023/07/13 05:07:23;;;;;;;10.93;4.72;;;15.70;99.90;;;;;;6093922;23;20033;-69
2023/07/13 05:09:48;;;;;;;15.85;5.45;;;15.70;99.90;;;;;;6045319;23;20126;-70
2023/07/13 05:12:14;;;;;;;11.10;4.97;;;15.70;99.90;;;;;;6071164;23;20560;-71
2023/07/13 05:14:40;;;;;;;10.52;5.00;;;15.80;99.90;;;;;;6069692;23;20403;-70
2023/07/13 05:17:06;;;;;;;13.57;5.57;;;15.80;99.90;;;;;;6095416;23;20073;-69
2023/07/13 05:19:32;;;;;;;9.75;5.05;;;15.90;99.90;;;;;;6095586;23;20022;-70
2023/07/13 05:21:57;;;;;;;10.07;4.82;;;15.90;99.90;;;;;;6070934;23;20053;-69
2023/07/13 05:24:23;;;;;;;13.85;5.35;;;16.00;99.90;;;;;;6095410;23;20074;-70
2023/07/13 05:26:49;;;;;;;12.07;5.13;;;16.00;99.90;;;;;;6046593;23;20033;-71
2023/07/13 05:29:15;;;;;;;11.10;4.68;;;16.00;99.90;;;;;;6096905;23;20054;-69
2023/07/13 05:31:40;;;;;;;12.98;4.70;;;16.00;99.90;;;;;;6074665;23;20022;-71
2023/07/13 05:34:06;;;;;;;12.90;4.88;;;16.10;99.90;;;;;;6076248;23;20026;-70
2023/07/13 05:36:32;;;;;;;9.02;4.63;;;16.10;99.90;;;;;;6097453;23;20022;-70
2023/07/13 05:38:57;;;;;;;12.02;5.03;;;16.10;99.90;;;;;;6098783;23;20022;-71
2023/07/13 05:41:23;;;;;;;12.27;4.72;;;16.10;99.90;;;;;;6075330;23;20014;-70
2023/07/13 05:43:49;;;;;;;14.95;4.85;;;16.20;99.90;;;;;;6027162;23;20074;-70
2023/07/13 05:46:15;;;;;;;12.32;5.32;;;16.30;99.90;;;;;;6075511;23;20032;-70
2023/07/13 05:48:41;;;;;;;15.52;4.93;;;16.30;99.90;;;;;;6126700;23;20024;-70
2023/07/13 05:51:07;;;;;;;10.30;4.80;;;16.40;99.90;;;;;;6128812;23;20014;-70
2023/07/13 05:53:33;;;;;;;11.95;4.88;;;16.50;99.90;;;;;;6101550;23;20022;-70
2023/07/13 05:55:59;;;;;;;12.68;5.07;;;16.60;99.90;;;;;;6128664;23;20022;-70
2023/07/13 05:58:25;;;;;;;13.57;4.68;;;16.60;99.90;;;;;;6127590;23;20045;-70
2023/07/13 06:01:04;;;;;;;12.23;5.32;;;16.70;99.90;;;;;;6127097;23;20028;-70
2023/07/13 06:03:30;;;;;;;11.20;4.53;;;16.80;99.90;;;;;;6128663;23;20022;-72
2023/07/13 06:05:55;;;;;;;15.55;5.22;;;16.80;99.90;;;;;;6076653;23;20157;-69
2023/07/13 06:08:21;;;;;;;15.23;5.07;;;16.90;99.90;;;;;;6078161;23;20022;-70
2023/07/13 06:10:47;;;;;;;11.65;5.15;;;17.00;99.90;;;;;;6100713;23;20026;-69
2023/07/13 06:13:12;;;;;;;11.82;4.72;;;17.10;99.90;;;;;;6078136;23;20026;-70
2023/07/13 06:15:38;;;;;;;13.95;5.20;;;17.20;99.90;;;;;;6101486;23;20037;-69
2023/07/13 06:18:04;;;;;;;11.52;4.60;;;17.30;99.90;;;;;;6076938;23;20407;-69
2023/07/13 06:20:30;;;;;;;10.32;4.68;;;17.40;99.90;;;;;;6102031;23;20045;-70
2023/07/13 06:22:56;;;;;;;9.25;5.20;;;17.50;99.90;;;;;;6125818;23;20072;-70
2023/07/13 06:25:21;;;;;;;9.55;4.63;;;17.50;99.90;;;;;;6102133;23;20022;-70
2023/07/13 06:27:47;;;;;;;15.38;4.60;;;17.60;99.90;;;;;;6095749;23;20021;-70
2023/07/13 06:30:13;;;;;;;10.13;4.72;;;17.70;99.90;;;;;;6118681;23;20033;-70
2023/07/13 06:32:39;;;;;;;8.63;4.30;;;17.80;99.90;;;;;;6093353;23;20029;-69
2023/07/13 06:35:05;;;;;;;9.95;4.35;;;17.90;99.90;;;;;;6092275;23;20028;-70
2023/07/13 06:37:31;;;;;;;12.18;5.07;;;18.00;99.90;;;;;;6092866;23;20022;-71
2023/07/13 06:39:56;;;;;;;12.45;5.10;;;18.00;99.90;;;;;;6117312;23;20132;-70
2023/07/13 06:42:22;;;;;;;8.43;4.47;;;18.00;99.90;;;;;;6093889;23;20077;-71
2023/07/13 06:44:48;;;;;;;8.18;4.32;;;18.10;99.90;;;;;;6092395;23;20021;-70
2023/07/13 06:47:13;;;;;;;10.70;4.75;;;18.20;99.90;;;;;;6069406;23;20406;-70
2023/07/13 06:49:39;;;;;;;9.65;4.43;;;18.30;99.90;;;;;;6118690;23;20077;-70
2023/07/13 06:52:05;;;;;;;8.88;4.03;;;18.40;99.90;;;;;;6068724;23;20026;-70
2023/07/13 06:54:31;;;;;;;12.68;4.68;;;18.50;99.90;;;;;;6093587;23;20053;-71
2023/07/13 06:56:56;;;;;;;11.55;4.43;;;18.60;99.90;;;;;;6068370;23;20021;-70
2023/07/13 06:59:22;;;;;;;10.68;4.50;;;18.60;99.90;;;;;;6069626;23;20037;-70
2023/07/13 07:01:48;;;;;;;9.85;4.25;;;18.60;99.90;;;;;;6068050;23;20125;-70
2023/07/13 07:04:13;;;;;;;10.35;4.22;;;18.80;99.90;;;;;;6093558;23;20014;-70
2023/07/13 07:06:39;;;;;;;11.13;3.75;;;18.90;99.90;;;;;;6118567;23;20029;-71
2023/07/13 07:09:05;;;;;;;8.98;3.60;;;18.90;99.90;;;;;;6119547;23;20050;-71
2023/07/13 07:11:30;;;;;;;10.13;3.47;;;19.10;99.90;;;;;;6093584;23;20029;-71
2023/07/13 07:13:56;;;;;;;9.38;3.80;;;19.20;99.90;;;;;;6091690;23;20029;-71
2023/07/13 07:16:24;;;;;;;13.98;4.47;;;19.30;99.90;;;;;;6094223;23;20029;-71
2023/07/13 07:18:49;;;;;;;9.13;3.85;;;19.30;99.90;;;;;;6068119;23;20022;-70
2023/07/13 07:21:15;;;;;;;9.25;3.70;;;19.30;99.90;;;;;;6070129;23;20088;-71
2023/07/13 07:23:42;;;;;;;9.25;3.85;;;19.20;99.90;;;;;;6118343;23;20018;-70
2023/07/13 07:26:09;;;;;;;8.20;3.80;;;19.20;99.90;;;;;;6118959;23;20021;-70
2023/07/13 07:28:36;;;;;;;9.73;4.50;;;19.10;99.90;;;;;;6092264;23;20653;-70
2023/07/13 07:31:02;;;;;;;9.10;4.18;;;19.00;99.90;;;;;;6089950;23;20022;-71
2023/07/13 07:33:27;;;;;;;9.80;4.38;;;18.90;99.90;;;;;;6090055;23;20030;-71
2023/07/13 07:35:53;;;;;;;8.35;4.10;;;18.90;99.90;;;;;;6086958;23;20077;-71
2023/07/13 07:38:19;;;;;;;7.63;4.90;;;18.90;99.90;;;;;;6064601;23;20105;-71
2023/07/13 07:40:45;;;;;;;10.18;4.75;;;18.80;99.90;;;;;;6063039;23;20022;-70
2023/07/13 07:43:13;;;;;;;12.55;4.20;;;18.80;99.90;;;;;;6039809;23;20097;-71
2023/07/13 07:45:39;;;;;;;6.07;3.83;;;18.80;99.90;;;;;;6091249;23;20077;-71
2023/07/13 07:48:06;;;;;;;7.25;4.10;;;18.70;99.90;;;;;;6093306;23;20022;-71
2023/07/13 07:50:32;;;;;;;10.57;4.60;;;18.70;99.90;;;;;;6089058;23;20029;-71
2023/07/13 07:52:58;;;;;;;10.02;4.38;;;18.80;99.90;;;;;;6088595;23;20049;-71
2023/07/13 07:55:27;;;;;;;7.20;4.82;;;18.80;99.90;;;;;;6090247;23;20551;-70
2023/07/13 07:57:53;;;;;;;9.90;4.63;;;18.70;99.90;;;;;;6088411;23;20022;-70
2023/07/13 08:00:19;;;;;;;8.38;4.70;;;18.70;99.90;;;;;;6088240;23;20507;-71
2023/07/13 08:02:45;;;;;;;9.98;5.05;;;18.70;99.90;;;;;;6087496;23;20027;-71
2023/07/13 08:05:11;;;;;;;12.23;5.50;;;18.60;99.90;;;;;;6087309;23;20053;-71
2023/07/13 08:07:38;;;;;;;8.93;4.95;;;18.60;99.90;;;;;;6064182;23;20018;-70
2023/07/13 08:10:07;;;;;;;8.20;4.80;;;18.50;99.90;;;;;;6088475;23;20037;-71
2023/07/13 08:12:37;;;;;;;11.20;5.07;;;18.40;99.90;;;;;;6089517;23;20523;-71
2023/07/13 08:15:05;;;;;;;9.90;5.47;;;18.40;99.90;;;;;;6086590;23;20018;-71
2023/07/13 08:17:31;;;;;;;8.88;4.88;;;18.40;99.90;;;;;;6089806;23;20044;-71
2023/07/13 08:19:57;;;;;;;9.02;4.57;;;18.50;99.90;;;;;;6088216;23;20026;-70
2023/07/13 08:22:22;;;;;;;9.15;4.90;;;18.60;99.90;;;;;;6087595;23;20028;-70
2023/07/13 08:24:55;;;;;;;10.73;5.40;;;18.80;99.90;;;;;;6063737;23;20508;-70
2023/07/13 08:27:23;;;;;;;11.45;5.07;;;18.90;99.90;;;;;;6064444;23;20376;-70
2023/07/13 08:29:49;;;;;;;15.68;5.63;;;18.90;99.90;;;;;;6064387;23;20325;-70
2023/07/13 08:32:15;;;;;;;11.48;5.78;;;19.00;99.90;;;;;;6087264;23;20026;-70
2023/07/13 08:34:41;;;;;;;9.40;5.72;;;19.00;99.90;;;;;;6087585;23;20048;-69
2023/07/13 08:37:07;;;;;;;7.97;4.93;;;19.00;99.90;;;;;;6087463;23;20380;-70
2023/07/13 08:39:33;;;;;;;9.68;5.22;;;19.00;99.90;;;;;;6062383;23;20050;-70
2023/07/13 08:42:07;;;;;;;9.10;5.38;;;19.00;99.90;;;;;;6088246;23;20022;-71
2023/07/13 08:45:13;;;;;;;10.85;5.00;;;18.90;99.90;;;;;;6086034;23;20037;-70
2023/07/13 08:47:53;;;;;;;9.40;4.95;;;19.00;99.90;;;;;;6087352;23;20254;-70
2023/07/13 08:50:24;;;;;;;12.30;5.32;;;19.00;99.90;;;;;;6089888;23;20022;-70
2023/07/13 08:52:50;;;;;;;8.98;4.97;;;18.90;99.90;;;;;;6062959;23;20582;-69
2023/07/13 08:55:22;;;;;;;8.02;4.13;;;18.80;99.90;;;;;;6086972;23;20023;-70
2023/07/13 08:57:54;;;;;;;;;;;18.70;99.90;;;;;;6089329;23;20022;-72
2023/07/13 09:00:20;;;;;;;8.68;4.40;;;18.60;99.90;;;;;;6063399;23;19921;-69
2023/07/13 09:02:53;;;;;;;9.27;4.85;;;18.50;99.90;;;;;;6059824;23;20613;-70
2023/07/13 09:05:54;;;;;;;9.32;4.53;;;18.40;99.90;;;;;;6086140;23;20026;-68
2023/07/13 09:08:39;;;;;;;5.00;3.90;;;18.40;99.90;;;;;;6067952;23;20466;-69
2023/07/13 09:11:12;;;;;;;5.47;3.42;;;18.20;99.90;;;;;;6086801;23;20022;-67
2023/07/13 09:14:01;;;;;;;4.75;3.03;;;18.10;99.90;;;;;;6086435;23;20026;-67
2023/07/13 09:16:27;;;;;;;6.47;3.80;;;18.00;99.90;;;;;;6089139;23;20910;-68
2023/07/13 09:19:04;;;;;;;5.53;3.45;;;17.90;99.90;;;;;;6062025;23;20022;-68
2023/07/13 09:21:38;;;;;;;8.73;3.65;;;17.90;99.90;;;;;;6089176;23;20022;-71
2023/07/13 09:24:37;;;;;;;7.07;3.80;;;17.80;99.90;;;;;;6063545;23;20093;-70
2023/07/13 09:27:17;;;;;;;7.38;4.20;;;17.70;99.90;;;;;;6087441;23;20030;-69
2023/07/13 09:29:55;;;;;;;8.20;4.20;;;17.60;99.90;;;;;;6089847;23;20518;-68
2023/07/13 09:32:24;;;;;;;10.05;4.90;;;17.60;99.90;;;;;;6087889;23;20059;-70
2023/07/13 09:34:52;;;;;;;7.28;4.97;;;17.60;99.90;;;;;;6088431;23;20053;-70
2023/07/13 09:37:28;;;;;;;10.35;4.80;;;17.60;99.90;;;;;;6089117;23;20022;-69
2023/07/13 09:39:55;;;;;;;9.80;4.40;;;17.50;99.90;;;;;;6085967;23;20455;-69
2023/07/13 09:42:22;;;;;;;7.72;4.65;;;17.40;99.90;;;;;;6085591;23;20029;-70
2023/07/13 09:45:02;;;;;;;9.30;5.72;;;17.40;99.90;;;;;;6086366;23;20404;-70
2023/07/13 09:47:30;;;;;;;15.88;6.47;;;17.40;99.90;;;;;;6088936;23;20097;-70
2023/07/13 09:50:04;;;;;;;11.98;6.13;;;17.40;99.90;;;;;;6063320;23;20026;-69
2023/07/13 09:52:44;;;;;;;6.32;4.65;;;17.30;99.90;;;;;;6087670;23;20025;-70
2023/07/13 09:55:36;;;;;;;4.22;2.78;;;17.30;99.90;;;;;;6087571;23;20026;-70
2023/07/13 09:58:05;;;;;;;3.45;2.38;;;17.20;99.90;;;;;;6077409;23;20159;-69
2023/07/13 10:00:31;;;;;;;4.45;2.47;;;17.20;99.90;;;;;;6062846;23;20026;-69
2023/07/13 10:03:03;;;;;;;4.00;2.67;;;17.20;99.90;;;;;;6086984;23;20027;-69
2023/07/13 10:05:37;;;;;;;;;;;17.30;99.90;;;;;;6088138;23;20030;-69
2023/07/13 10:08:03;;;;;;;3.75;3.33;;;17.50;99.90;;;;;;6087489;23;19940;-69
2023/07/13 10:10:28;;;;;;;4.53;3.08;;;17.70;99.90;;;;;;6061237;23;20058;-69
2023/07/13 10:12:54;;;;;;;4.25;3.10;;;18.00;99.90;;;;;;6087014;23;20026;-69
2023/07/13 10:15:25;;;;;;;3.17;2.50;;;18.20;99.90;;;;;;6088590;23;20065;-69
2023/07/13 10:17:54;;;;;;;2.70;2.50;;;18.30;99.90;;;;;;6088072;23;20026;-70
2023/07/13 10:20:21;;;;;;;2.85;2.30;;;18.50;99.90;;;;;;6087383;23;20258;-70
2023/07/13 10:23:10;;;;;;;2.63;2.40;;;18.70;99.90;;;;;;6085712;23;20022;-69
2023/07/13 10:25:40;;;;;;;2.70;2.50;;;18.90;99.90;;;;;;6087808;23;20365;-69
2023/07/13 10:28:29;;;;;;;4.72;2.47;;;19.00;99.90;;;;;;6086425;23;20088;-70
2023/07/13 10:30:58;;;;;;;5.00;2.30;;;19.20;99.90;;;;;;6063131;23;20031;-69
2023/07/13 10:33:24;;;;;;;3.30;2.00;;;19.40;99.90;;;;;;6088006;23;20065;-69
2023/07/13 10:35:54;;;;;;;3.50;2.47;;;19.60;99.90;;;;;;6039855;23;20027;-69
2023/07/13 10:38:23;;;;;;;2.65;2.30;;;19.60;99.90;;;;;;6091236;23;20089;-69
2023/07/13 10:41:05;;;;;;;3.30;2.50;;;19.80;99.90;;;;;;6089943;23;20075;-69
2023/07/13 10:43:39;;;;;;;;;;;20.00;99.90;;;;;;6091552;23;20085;-71
2023/07/13 10:46:08;;;;;;;3.63;2.80;;;20.00;99.90;;;;;;6089129;23;19944;-70
2023/07/13 10:48:36;;;;;;;4.55;3.03;;;20.30;99.90;;;;;;6087635;23;20022;-70
2023/07/13 10:51:06;;;;;;;3.08;2.78;;;20.50;99.90;;;;;;6091084;23;20140;-70
2023/07/13 10:53:36;;;;;;;3.97;2.97;;;20.70;99.90;;;;;;6089920;23;20015;-70
2023/07/13 10:56:19;;;;;;;4.78;3.47;;;20.80;99.90;;;;;;6088879;23;20756;-71
2023/07/13 10:58:46;;;;;;;3.97;3.05;;;20.90;99.90;;;;;;6090854;23;20396;-70
2023/07/13 11:01:15;;;;;;;3.75;3.22;;;20.90;99.90;;;;;;6089726;23;20019;-70
2023/07/13 11:03:43;;;;;;;5.50;3.85;;;20.80;99.90;;;;;;6090454;23;20061;-71
2023/07/13 11:06:33;;;;;;;6.72;4.18;;;20.80;99.90;;;;;;6088836;23;20050;-70
2023/07/13 11:09:28;;;;;;;6.13;3.95;;;20.60;99.90;;;;;;6088449;23;20480;-70
2023/07/13 11:11:56;;;;;;;4.97;4.13;;;20.30;99.90;;;;;;6088561;23;20034;-70
2023/07/13 11:14:49;;;;;;;8.10;4.70;;;20.10;99.90;;;;;;6088255;23;20063;-70
2023/07/13 11:17:27;;;;;;;6.97;4.15;;;19.90;99.90;;;;;;6040704;23;20027;-70
2023/07/13 11:19:53;;;;;;;7.63;4.13;;;19.40;99.90;;;;;;6090433;23;20349;-70
2023/07/13 11:22:48;;;;;;;8.00;4.82;;;19.10;99.90;;;;;;6090898;23;20054;-70
2023/07/13 11:25:29;;;;;;;8.65;4.93;;;18.80;99.90;;;;;;6097212;23;20341;-70
2023/07/13 11:28:16;;;;;;;9.75;4.93;;;18.60;99.90;;;;;;6097590;23;20050;-70
2023/07/13 11:30:57;;;;;;;8.85;5.72;;;18.40;99.90;;;;;;6072146;23;20486;-70
2023/07/13 11:33:26;;;;;;;7.60;5.72;;;18.30;99.90;;;;;;6099184;23;20041;-70
2023/07/13 11:36:03;;;;;;;6.15;4.80;;;18.20;99.90;;;;;;6071711;23;20047;-71
2023/07/13 11:38:39;;;;;;;6.75;5.32;;;18.20;99.90;;;;;;6073243;23;20026;-70
2023/07/13 11:41:21;;;;;;;8.15;4.72;;;18.10;99.90;;;;;;6048387;23;20026;-69
2023/07/13 11:43:49;;;;;;;;;;;18.10;99.90;;;;;;6098141;23;20022;-71
2023/07/13 11:46:20;;;;;;;9.32;4.50;;;17.90;99.90;;;;;;6098738;23;20289;-70
2023/07/13 11:48:48;;;;;;;7.27;4.50;;;17.90;99.90;;;;;;6071593;23;20405;-71
2023/07/13 11:51:33;;;;;;;5.78;4.13;;;18.00;99.90;;;;;;6098706;23;20093;-70
2023/07/13 11:54:17;;;;;;;10.20;4.10;;;18.00;99.90;;;;;;6098433;23;20026;-70
2023/07/13 11:56:42;;;;;;;6.43;4.38;;;18.30;99.90;;;;;;6071916;23;20431;-71
2023/07/13 11:59:13;;;;;;;7.43;5.57;;;18.50;99.90;;;;;;6049015;23;20018;-70
2023/07/13 12:01:45;;;;;;;7.43;5.15;;;18.70;99.90;;;;;;6071267;23;20022;-69
2023/07/13 12:04:22;;;;;;;7.22;5.30;;;18.70;99.90;;;;;;6048832;23;20023;-70
2023/07/13 12:06:58;;;;;;;6.25;5.28;;;18.80;99.90;;;;;;6098245;23;20089;-70
2023/07/13 12:09:27;;;;;;;7.78;5.32;;;19.00;99.90;;;;;;6097350;23;20028;-70
2023/07/13 12:11:53;;;;;;;5.00;4.28;;;19.30;99.90;;;;;;6072959;23;20042;-70
2023/07/13 12:14:20;;;;;;;5.78;4.70;;;19.30;99.90;;;;;;6071332;23;20022;-70
2023/07/13 12:16:46;;;;;;;5.80;4.20;;;19.50;99.90;;;;;;6073272;23;20077;-70
2023/07/13 12:19:29;;;;;;;6.18;4.63;;;19.80;99.90;;;;;;6072134;23;20053;-70
2023/07/13 12:21:59;;;;;;;5.75;4.85;;;20.10;99.90;;;;;;6097759;23;20053;-70
2023/07/13 12:24:26;;;;;;;7.47;4.70;;;20.30;99.90;;;;;;6072582;23;20015;-70
2023/07/13 12:27:01;;;;;;;6.28;4.00;;;20.50;99.90;;;;;;6071632;23;20083;-70
2023/07/13 12:29:26;;;;;;;5.53;3.63;;;20.70;99.90;;;;;;6072901;23;20022;-70
2023/07/13 12:31:52;;;;;;;6.47;3.80;;;20.80;99.90;;;;;;6099705;23;20019;-70
2023/07/13 12:34:21;;;;;;;7.25;3.78;;;20.90;99.90;;;;;;6096714;23;20223;-70
2023/07/13 12:37:00;;;;;;;7.43;4.40;;;21.10;99.90;;;;;;6096189;23;20395;-71
2023/07/13 12:39:46;;;;;;;6.88;4.43;;;21.20;99.90;;;;;;6095739;23;20022;-70
2023/07/13 12:42:29;;;;;;;5.40;3.67;;;21.30;99.90;;;;;;6098837;23;20018;-70
2023/07/13 12:44:57;;;;;;;6.93;3.63;;;21.20;99.90;;;;;;6097377;23;20022;-70
2023/07/13 12:47:23;;;;;;;4.43;3.00;;;21.20;99.90;;;;;;6071920;23;20022;-70
2023/07/13 12:49:53;;;;;;;6.05;3.03;;;21.30;99.90;;;;;;6097739;23;20074;-69
2023/07/13 12:52:30;;;;;;;3.63;2.15;;;21.40;99.90;;;;;;6097159;23;20022;-70